Flight Track Log - Related Links

Times and Time Zones

All times are in EDT time to prevent confusion due to time zone crossing. See the EJA831 flight status page for this flight to view local times or setup timezone preferences in your user account.


Time Position Orientation Groundspeed Altitude Reporting Facility
EDT Latitude Longitude Course Direction KTS MPH feet Rate Location/Type
Mon 03:09:23 PM 44.1008 -123.2183 140° Southeast 188 216 2,000  Level Seattle Center
Mon 03:10:24 PM 44.0536 -123.1642 140° Southeast 272 313 6,500 3,443 Climbing Seattle Center
Mon 03:11:25 PM 44.0894 -123.0606 64° Northeast 305 351 9,000 3,122 Climbing Seattle Center
Mon 03:12:27 PM 44.1292 -122.9636 60° Northeast 292 336 12,900 3,463 Climbing Seattle Center
Mon 03:13:28 PM 44.1658 -122.8625 63° Northeast 299 344 16,100 2,164 Climbing Seattle Center
Mon 03:14:29 PM 44.1981 -122.7253 72° East 377 434 17,300 1,328 Climbing Seattle Center
Mon 03:15:30 PM 44.2325 -122.5675 73° East 422 486 18,800 836 Climbing Seattle Center
Mon 03:16:31 PM 44.2658 -122.4128 73° East 420 483 19,000 878 Climbing Seattle Center
Mon 03:17:33 PM 44.3319 -122.2356 62° Northeast 441 507 20,600 1,707 Climbing Seattle Center
Mon 03:18:34 PM 44.3983 -122.0889 58° Northeast 447 514 22,500 2,213 Climbing Seattle Center
Mon 03:19:35 PM 44.4600 -121.9433 59° Northeast 439 505 25,100 2,410 Climbing Seattle Center
Mon 03:20:36 PM 44.5183 -121.8125 58° Northeast 431 496 27,400 2,361 Climbing Seattle Center
Mon 03:21:37 PM 44.5806 -121.6722 58° Northeast 427 491 29,900 2,244 Climbing Seattle Center
Mon 03:22:39 PM 44.6403 -121.5294 60° Northeast 426 490 32,000 1,512 Climbing Seattle Center
Mon 03:23:40 PM 44.7044 -121.3789 59° Northeast 445 512 33,000 492 Climbing Seattle Center
Mon 03:24:41 PM 44.7883 -121.1800 59° Northeast 492 566 33,000  Level Seattle Center
Mon 03:25:42 PM 44.8608 -121.0078 59° Northeast 509 586 33,000  Level Seattle Center
Mon 03:26:43 PM 44.9333 -120.8336 59° Northeast 514 592 33,000  Level Seattle Center
Mon 03:27:45 PM 45.0064 -120.6583 59° Northeast 517 595 33,000  Level Seattle Center
Mon 03:28:46 PM 45.0783 -120.4819 60° Northeast 516 594 33,000  Level Seattle Center
Mon 03:29:47 PM 45.1511 -120.3058 60° Northeast 514 592 33,000  Level Seattle Center
Mon 03:30:48 PM 45.2250 -120.1289 59° Northeast 516 594 33,000  Level Seattle Center
Mon 03:31:49 PM 45.2967 -119.9517 60° Northeast 512 589 33,000  Level Seattle Center
Mon 03:32:50 PM 45.3683 -119.7756 60° Northeast 512 589 33,000  Level Seattle Center
Mon 03:33:52 PM 45.4381 -119.5981 61° Northeast 513 590 33,000  Level Seattle Center
Mon 03:34:53 PM 45.5089 -119.4228 60° Northeast 512 589 33,000  Level Seattle Center
Mon 03:35:54 PM 45.5792 -119.2450 60° Northeast 515 593 33,000  Level Seattle Center
Mon 03:36:55 PM 45.6500 -119.0672 60° Northeast 516 594 33,000  Level Seattle Center
Mon 03:37:56 PM 45.7242 -118.8925 59° Northeast 519 597 33,000  Level Seattle Center
Mon 03:38:58 PM 45.8306 -118.7078 50° Northeast 504 580 33,000  Level Seattle Center
Mon 03:39:59 PM 45.9178 -118.5506 51° Northeast 504 580 33,000  Level Seattle Center
Mon 03:41:00 PM 45.9992 -118.4033 51° Northeast 506 582 33,000  Level Seattle Center
Mon 03:42:01 PM 46.0869 -118.2475 51° Northeast 504 580 33,000  Level Seattle Center
Mon 03:43:03 PM 46.1733 -118.0892 52° Northeast 505 581 33,000  Level Seattle Center
Mon 03:44:04 PM 46.2600 -117.9314 51° Northeast 504 580 33,000  Level Seattle Center
Mon 03:45:05 PM 46.3631 -117.7417 52° Northeast 503 579 33,000  Level Seattle Center
Mon 03:46:06 PM 46.4494 -117.5825 52° Northeast 505 581 33,000  Level Seattle Center
Mon 03:47:07 PM 46.5333 -117.4214 53° Northeast 503 579 33,000  Level Seattle Center
Mon 03:48:08 PM 46.5792 -117.2228 71° East 521 600 33,000  Level Seattle Center
Mon 03:49:10 PM 46.6039 -117.0139 80° East 528 608 33,000 -585 Level Seattle Center
Mon 03:50:11 PM 46.6283 -116.8067 80° East 525 604 31,800 -1,475 Descending Seattle Center
Mon 03:51:12 PM 46.6533 -116.6006 80° East 523 602 30,000 -1,770 Descending Seattle Center
Mon 03:52:13 PM 46.6758 -116.4008 81° East 511 588 28,200 -1,770 Descending Seattle Center
Mon 03:53:14 PM 46.6981 -116.2069 80° East 497 572 26,400 -1,967 Descending Seattle Center
Mon 03:54:15 PM 46.7247 -115.9731 80° East 491 565 24,200 -1,951 Descending Seattle Center
Mon 03:55:17 PM 46.7439 -115.7914 81° East 468 539 22,400 -1,756 Descending Seattle Center
Mon 03:56:18 PM 46.7639 -115.6167 80° East 449 517 20,600 -1,770 Descending Seattle Center
Mon 03:57:19 PM 46.7814 -115.4481 81° East 431 496 18,800 -1,721 Descending Seattle Center
Mon 03:58:20 PM 46.7986 -115.2797 81° East 418 481 17,100 -1,721 Descending Seattle Center
Mon 03:59:21 PM 46.8150 -115.1189 81° East 408 470 15,300 -1,033 Descending Seattle Center
Mon 04:00:22 PM 46.8319 -114.9608 81° East 400 460 15,000 -148 Descending Seattle Center
Mon 04:01:23 PM 46.8475 -114.7997 82° East 401 461 15,000 -590 Level Seattle Center
Mon 04:02:24 PM 46.8464 -114.6422 91° East 394 453 13,800 -1,377 Descending Seattle Center
Mon 04:03:25 PM 46.8022 -114.5075 116° Southeast 377 434 12,200 -934 Descending Seattle Center
Mon 04:04:26 PM 46.7519 -114.3544 116° Southeast 363 418 11,900 -148 Descending Seattle Center
Mon 04:05:27 PM 46.7100 -114.2294 116° Southeast 355 409 11,900  Level Seattle Center
Mon 04:06:28 PM 46.6806 -114.1022 109° East 345 397 11,900 -148 Level Seattle Center
Mon 04:07:29 PM 46.7067 -114.0172 66° East 303 349 11,600 -1,082 Descending Seattle Center
Mon 04:08:30 PM 46.7567 -114.0281 352° North 223 257 9,700 -2,049 Descending Seattle Center
Mon 04:09:32 PM 46.8011 -114.0289 359° North 183 211 7,400 -2,146 Descending Seattle Center
Mon 04:10:33 PM 46.8442 -114.0169 11° North 166 191 5,300 -1,500 Descending Seattle Center
Mon 04:12:04 PM 46.8933 -114.0522 334° Northwest 122 140 3,600 -863 Descending Salt Lake Center
Mon 04:13:06 PM 46.9111 -114.0836 310° West 112 129 3,100 -484 Descending Salt Lake Center

Login

Don't have an account? Register now (free) for customized features, flight alerts, and more!